Sankoumaru 31 — JD2200 — position and weather

sailwx.info

Track history (hours):
 
Tides and Currents Weather Stations Pressure Air Temp Water Temp Dewpoint Dewpoint Depression Visibility Wind Speed Wind Dir Waves Ship Positions

Sankoumaru 31

Last reported at 2015-Jan-30 09:24 UTC. Time now 2015-Jan-31 04:02 UTC.
Position N 34°05' E 134°47'.

Length 75 m; draft 5 m.

Type: Cargo ship. MMSI: 431501842.

Date/timePositionNaut miles runAvg speedWind from/ knotsBaromVisibWave heightAir tempDewpointWater temp
2015-Jan-30 09:24N 34°05' E 134°47'  
2015-Jan-28 04:25N 34°37' E 135°01'1112.5
2015-Jan-28 03:33N 34°37' E 135°14'9 4.2
2015-Jan-28 01:22N 34°42' E 135°24'0 0.0
2015-Jan-28 00:31N 34°42' E 135°24'0 0.0
2015-Jan-27 23:32N 34°42' E 135°24'0 0.0
2015-Jan-27 22:33N 34°42' E 135°24'0 0.0
2015-Jan-27 21:33N 34°42' E 135°24'0 0.0
2015-Jan-27 20:32N 34°42' E 135°24'0 0.0
2015-Jan-27 19:19N 34°42' E 135°24'0 0.0
2015-Jan-27 18:33N 34°42' E 135°24'0 0.0
2015-Jan-27 17:32N 34°42' E 135°24'0 0.0
2015-Jan-27 16:32N 34°42' E 135°24'0 0.0
2015-Jan-27 15:31N 34°42' E 135°24'0 0.0
2015-Jan-27 14:30N 34°42' E 135°24'0 0.0
2015-Jan-27 13:33N 34°42' E 135°24'0 0.0
2015-Jan-27 12:32N 34°42' E 135°24'0 0.0
2015-Jan-27 11:33N 34°42' E 135°24'0 0.0
2015-Jan-27 10:33N 34°42' E 135°24'0 0.0
2015-Jan-27 09:32N 34°42' E 135°24'0 0.0
2015-Jan-27 08:32N 34°42' E 135°24'0 0.0
2015-Jan-27 07:33N 34°42' E 135°24'0 0.0
2015-Jan-27 05:19N 34°42' E 135°24'0 0.0
2015-Jan-27 04:32N 34°42' E 135°24'0 0.0
2015-Jan-27 01:08N 34°42' E 135°24'0 0.0
2015-Jan-27 00:31N 34°42' E 135°24'0 0.0
2015-Jan-26 23:19N 34°42' E 135°24'0 0.0
2015-Jan-26 22:33N 34°42' E 135°24'0 0.0
2015-Jan-26 21:33N 34°42' E 135°24'0 0.0
2015-Jan-26 20:33N 34°42' E 135°24'0 0.0
2015-Jan-26 19:33N 34°42' E 135°24'0 0.0
2015-Jan-26 18:33N 34°42' E 135°24'0 0.0
2015-Jan-26 17:33N 34°42' E 135°24'0 0.0
2015-Jan-26 16:33N 34°42' E 135°24'0 0.0
2015-Jan-26 15:33N 34°42' E 135°24'0 0.0
2015-Jan-26 14:33N 34°42' E 135°24'0 0.0
2015-Jan-26 13:33N 34°42' E 135°24'0 0.0
2015-Jan-26 12:33N 34°42' E 135°24'0 0.0
2015-Jan-26 11:33N 34°42' E 135°24'0 0.0
2015-Jan-26 10:33N 34°42' E 135°24'0 0.0
2015-Jan-26 09:33N 34°42' E 135°24'0 0.0
2015-Jan-26 08:33N 34°42' E 135°24'0 0.0
2015-Jan-26 07:33N 34°42' E 135°24'1 0.1
2015-Jan-25 23:33N 34°41' E 135°24'1 1.0
2015-Jan-25 22:30N 34°40' E 135°22'0 0.0
2015-Jan-25 21:30N 34°40' E 135°22'0 0.0
2015-Jan-25 20:30N 34°40' E 135°22'0 0.0
2015-Jan-25 19:24N 34°40' E 135°22'0 0.0
2015-Jan-25 18:30N 34°40' E 135°22'0 0.0
2015-Jan-25 17:30N 34°40' E 135°22'0 0.0
2015-Jan-25 16:30N 34°40' E 135°22'0 0.0
2015-Jan-25 15:30N 34°40' E 135°22'0 0.0
2015-Jan-25 14:30N 34°40' E 135°22'0 0.0
2015-Jan-25 13:30N 34°40' E 135°22'2 2.1
2015-Jan-25 12:33N 34°39' E 135°21'1211.5
2015-Jan-25 11:33N 34°30' E 135°12'1110.8
2015-Jan-25 10:31N 34°21' E 135°03'233 8.6
2015-Jan-24 07:27N 34°52' E 139°44'  
Track history (hours):
 
Tides and Currents Weather Stations Pressure Air Temp Water Temp Dewpoint Dewpoint Depression Visibility Wind Speed Wind Dir Waves Ship Positions

Sankoumaru 31

Last reported at 2015-Jan-30 09:24 UTC. Time now 2015-Jan-31 04:02 UTC.
Position N 34°05' E 134°47'.

Length 75 m; draft 5 m.

Type: Cargo ship. MMSI: 431501842.

Date/timePositionNaut miles runAvg speedWind from/ knotsBaromVisibWave heightAir tempDewpointWater temp
2015-Jan-30 09:24N 34°05' E 134°47'  
2015-Jan-28 04:25N 34°37' E 135°01'1112.5
2015-Jan-28 03:33N 34°37' E 135°14'9 4.2
2015-Jan-28 01:22N 34°42' E 135°24'0 0.0
2015-Jan-28 00:31N 34°42' E 135°24'0 0.0
2015-Jan-27 23:32N 34°42' E 135°24'0 0.0
2015-Jan-27 22:33N 34°42' E 135°24'0 0.0
2015-Jan-27 21:33N 34°42' E 135°24'0 0.0
2015-Jan-27 20:32N 34°42' E 135°24'0 0.0
2015-Jan-27 19:19N 34°42' E 135°24'0 0.0
2015-Jan-27 18:33N 34°42' E 135°24'0 0.0
2015-Jan-27 17:32N 34°42' E 135°24'0 0.0
2015-Jan-27 16:32N 34°42' E 135°24'0 0.0
2015-Jan-27 15:31N 34°42' E 135°24'0 0.0
2015-Jan-27 14:30N 34°42' E 135°24'0 0.0
2015-Jan-27 13:33N 34°42' E 135°24'0 0.0
2015-Jan-27 12:32N 34°42' E 135°24'0 0.0
2015-Jan-27 11:33N 34°42' E 135°24'0 0.0
2015-Jan-27 10:33N 34°42' E 135°24'0 0.0
2015-Jan-27 09:32N 34°42' E 135°24'0 0.0
2015-Jan-27 08:32N 34°42' E 135°24'0 0.0
2015-Jan-27 07:33N 34°42' E 135°24'0 0.0
2015-Jan-27 05:19N 34°42' E 135°24'0 0.0
2015-Jan-27 04:32N 34°42' E 135°24'0 0.0
2015-Jan-27 01:08N 34°42' E 135°24'0 0.0
2015-Jan-27 00:31N 34°42' E 135°24'0 0.0
2015-Jan-26 23:19N 34°42' E 135°24'0 0.0
2015-Jan-26 22:33N 34°42' E 135°24'0 0.0
2015-Jan-26 21:33N 34°42' E 135°24'0 0.0
2015-Jan-26 20:33N 34°42' E 135°24'0 0.0
2015-Jan-26 19:33N 34°42' E 135°24'0 0.0
2015-Jan-26 18:33N 34°42' E 135°24'0 0.0
2015-Jan-26 17:33N 34°42' E 135°24'0 0.0
2015-Jan-26 16:33N 34°42' E 135°24'0 0.0
2015-Jan-26 15:33N 34°42' E 135°24'0 0.0
2015-Jan-26 14:33N 34°42' E 135°24'0 0.0
2015-Jan-26 13:33N 34°42' E 135°24'0 0.0
2015-Jan-26 12:33N 34°42' E 135°24'0 0.0
2015-Jan-26 11:33N 34°42' E 135°24'0 0.0
2015-Jan-26 10:33N 34°42' E 135°24'0 0.0
2015-Jan-26 09:33N 34°42' E 135°24'0 0.0
2015-Jan-26 08:33N 34°42' E 135°24'0 0.0
2015-Jan-26 07:33N 34°42' E 135°24'1 0.1
2015-Jan-25 23:33N 34°41' E 135°24'1 1.0
2015-Jan-25 22:30N 34°40' E 135°22'0 0.0
2015-Jan-25 21:30N 34°40' E 135°22'0 0.0
2015-Jan-25 20:30N 34°40' E 135°22'0 0.0
2015-Jan-25 19:24N 34°40' E 135°22'0 0.0
2015-Jan-25 18:30N 34°40' E 135°22'0 0.0
2015-Jan-25 17:30N 34°40' E 135°22'0 0.0
2015-Jan-25 16:30N 34°40' E 135°22'0 0.0
2015-Jan-25 15:30N 34°40' E 135°22'0 0.0
2015-Jan-25 14:30N 34°40' E 135°22'0 0.0
2015-Jan-25 13:30N 34°40' E 135°22'2 2.1
2015-Jan-25 12:33N 34°39' E 135°21'1211.5
2015-Jan-25 11:33N 34°30' E 135°12'1110.8
2015-Jan-25 10:31N 34°21' E 135°03'233 8.6
2015-Jan-24 07:27N 34°52' E 139°44'  

Dump ship's entire track history